Hauptseite
METAR-TAF:

METAR-TAF

Flughäfen :

Fliegerhorst Büchel

Büchel, Deutschland

Breite: 50-10N, Länge: 007-04E, Höhe: 478 m

Beobachtung

Neuester Wetterbericht von vor 27 Minuten, um 01:20 UTC
Wind 5 kt aus West/Südwest
Temperatur 8°C
Luftfeuchtigkeit 93%
Luftdruck 1023 hPa
Sichtweite 10 km oder mehr

METAR: ETSB 220120Z AUTO 25005KT 9999 // ////// 08/07 Q1023 ///

Zeit: 03:47 (01:47 UTC)

Prognose

Neuester Wetterbericht von vor 9 Stunden und 27 Minuten, um 16:20 UTC
Gültige Prognose vom 21 um 16 UTC bis 21 um 23 UTC
Wind 10 kt aus Südwest
Sichtweite: 1620 m
Aufgelockert bewölkt in der Höhe von 2000 ft
Durchbrochene Bewölkung in der Höhe von 4000 ft

TAF: ETSB 211620Z 2116/2123 22010KT 9999 NSW SCT020 BKN040 CANCEL 1620

Wetterbeobachtungen und Prognosen von mehr als 4000 Flughäfen (METAR und TAF Bericht).

Die verfügbaren Stationen werden durch gelbe und rote Markierungen auf der Karte dargestellt.

Führen Sie die Maus auf sie, um den Namen der Station zu sehen.

Darauf klicken, um die Beobachtung von Wetterbeobachtungen und Prognosen zu sehen.

Um die Karte zu ändern : klicken Sie auf den grünen Tasten mit einem schwarzen Kreuz Zum Vergrößern, auf den grünen Button mit einem Gedankenstrich zu verkleinern, oder auf die grünen Pfeile für benachbarte Karten.


METAR-TAF: